Terminal Aerodrome Forecast
Issued by NWS St Louis, MO

Home | Current Version | Previous Version | Text Only | Print | Product List | Glossary On
Versions: 1 2 3 4 5 6 7 8 9 10 11 12 13 14 15 16 17 18 19 20 21 22 23 24 25 26 27 28 29 30 31
925
FTUS43 KLSX 061337 AAA
TAFSTL
TAF AMD
KSTL 061337Z 0614/0718 34008KT 5SM BR OVC007
     FM061500 34008KT P6SM BKN015
     FM061700 31009KT P6SM SCT020
     FM062100 30011KT P6SM SCT200=

USA.gov is the U.S. government's official web portal to all federal, state and local government web resources and services.